地図

経路データ

SID SEASON NUMBER BASIN SUBBASIN NAME ISO_TIME NATURE LAT LON WMO_WIND WMO_PRES WMO_AGENCY TRACK_TYPE DIST2LAND LANDFALL IFLAG USA_AGENCY USA_ATCF_ID USA_LAT USA_LON USA_RECORD USA_STATUS USA_WIND USA_PRES USA_SSHS USA_R34_NE USA_R34_SE USA_R34_SW USA_R34_NW USA_R50_NE USA_R50_SE USA_R50_SW USA_R50_NW USA_R64_NE USA_R64_SE USA_R64_SW USA_R64_NW USA_POCI USA_ROCI USA_RMW USA_EYE TOKYO_LAT TOKYO_LON TOKYO_GRADE TOKYO_WIND TOKYO_PRES TOKYO_R50_DIR TOKYO_R50_LONG TOKYO_R50_SHORT TOKYO_R30_DIR TOKYO_R30_LONG TOKYO_R30_SHORT TOKYO_LAND CMA_LAT CMA_LON CMA_CAT CMA_WIND CMA_PRES HKO_LAT HKO_LON HKO_CAT HKO_WIND HKO_PRES NEWDELHI_LAT NEWDELHI_LON NEWDELHI_GRADE NEWDELHI_WIND NEWDELHI_PRES NEWDELHI_CI NEWDELHI_DP NEWDELHI_POCI REUNION_LAT REUNION_LON REUNION_TYPE REUNION_WIND REUNION_PRES REUNION_TNUM REUNION_CI REUNION_RMW REUNION_R34_NE REUNION_R34_SE REUNION_R34_SW REUNION_R34_NW REUNION_R50_NE REUNION_R50_SE REUNION_R50_SW REUNION_R50_NW REUNION_R64_NE REUNION_R64_SE REUNION_R64_SW REUNION_R64_NW BOM_LAT BOM_LON BOM_TYPE BOM_WIND BOM_PRES BOM_TNUM BOM_CI BOM_RMW BOM_R34_NE BOM_R34_SE BOM_R34_SW BOM_R34_NW BOM_R50_NE BOM_R50_SE BOM_R50_SW BOM_R50_NW BOM_R64_NE BOM_R64_SE BOM_R64_SW BOM_R64_NW BOM_ROCI BOM_POCI BOM_EYE BOM_POS_METHOD BOM_PRES_METHOD NADI_LAT NADI_LON NADI_CAT NADI_WIND NADI_PRES WELLINGTON_LAT WELLINGTON_LON WELLINGTON_WIND WELLINGTON_PRES DS824_LAT DS824_LON DS824_STAGE DS824_WIND DS824_PRES TD9636_LAT TD9636_LON TD9636_STAGE TD9636_WIND TD9636_PRES TD9635_LAT TD9635_LON TD9635_WIND TD9635_PRES TD9635_ROCI NEUMANN_LAT NEUMANN_LON NEUMANN_CLASS NEUMANN_WIND NEUMANN_PRES MLC_LAT MLC_LON MLC_CLASS MLC_WIND MLC_PRES USA_GUST BOM_GUST BOM_GUST_PER REUNION_GUST REUNION_GUST_PER USA_SEAHGT USA_SEARAD_NE USA_SEARAD_SE USA_SEARAD_SW USA_SEARAD_NW STORM_SPEED STORM_DIR
1979126N07090 1979 37 NI BB NOT_NAMED 1979-05-05 12:00:00 TS 7.00000 89.9000 main 606 606 O________OO___ jtwc_io IO011979 7.00000 89.9000 XX 20 -5 7.00000 89.9000 TC 20 7.00000 89.9000 1 0 0
1979126N07090 1979 37 NI BB NOT_NAMED 1979-05-05 15:00:00 TS 6.99739 89.9049 main 606 606 P________PP___ IO011979 7.00000 89.9175 XX 20 -5 7.00000 89.9175 TC 20 6.99217 89.8797 1 0 0
1979126N07090 1979 37 NI BB NOT_NAMED 1979-05-05 18:00:00 TS 6.99582 89.8825 main 606 606 O________OP___ jtwc_io IO011979 7.00000 89.9000 XX 20 -5 7.00000 89.9000 TC 20 6.98748 89.8475 1 1 269
1979126N07090 1979 37 NI BB NOT_NAMED 1979-05-05 21:00:00 TS 6.99635 89.8122 main 617 617 P________PP___ IO011979 7.00000 89.8225 XX 22 -5 7.00000 89.8225 TC 22 6.98904 89.7915 1 2 271
1979126N07090 1979 37 NI BB NOT_NAMED 1979-05-06 00:00:00 TS 7.00000 89.7000 main 628 628 O________OO___ jtwc_io IO011979 7.00000 89.7000 XX 25 -5 7.00000 89.7000 TC 25 7.00000 89.7000 1 2 271
1979126N07090 1979 37 NI BB NOT_NAMED 1979-05-06 03:00:00 TS 7.00229 89.5650 main 639 639 P________PP___ IO011979 6.99249 89.5650 XX 25 -5 6.99249 89.5650 TC 25 7.02189 89.5650 1 3 273
1979126N07090 1979 37 NI BB NOT_NAMED 1979-05-06 06:00:00 TS 7.01667 89.3983 main 660 660 O________OP___ jtwc_io IO011979 7.00000 89.4000 XX 25 -5 7.00000 89.4000 TC 25 7.05002 89.3950 1 4 279
1979126N07090 1979 37 NI BB NOT_NAMED 1979-05-06 09:00:00 TS 7.05938 89.2058 main 684 684 P________PP___ IO011979 7.05000 89.2075 XX 27 -5 7.05000 89.2075 TC 27 7.07813 89.2025 1 4 282
1979126N07090 1979 37 NI BB NOT_NAMED 1979-05-06 12:00:00 TS 7.10000 89.0000 main 706 706 O________OO___ jtwc_io IO011979 7.10000 89.0000 XX 30 -5 7.10000 89.0000 TC 30 7.10000 89.0000 1 4 278
1979126N07090 1979 37 NI BB NOT_NAMED 1979-05-06 15:00:00 TS 7.11547 88.8119 main 727 727 P________PP___ IO011979 7.10749 88.8000 XX 30 -5 7.10749 88.8000 TC 30 7.13144 88.8357 1 4 273
1979126N07090 1979 37 NI BB NOT_NAMED 1979-05-06 18:00:00 TS 7.11743 88.6200 main 740 718 O________OP___ jtwc_io IO011979 7.10000 88.6000 XX 30 -5 7.10000 88.6000 TC 30 7.15230 88.6601 1 4 272
1979126N07090 1979 37 NI BB NOT_NAMED 1979-05-06 21:00:00 TS 7.13063 88.4382 main 718 695 P________PP___ IO011979 7.12244 88.4300 XX 32 -5 7.12244 88.4300 TC 32 7.14702 88.4545 1 4 268
1979126N07090 1979 37 NI BB NOT_NAMED 1979-05-07 00:00:00 TS 7.10000 88.2000 main 695 651 O________OO___ jtwc_io IO011979 7.10000 88.2000 XX 35 -5 7.10000 88.2000 TC 35 7.10000 88.2000 2 6 256
1979126N07090 1979 37 NI BB NOT_NAMED 1979-05-07 03:00:00 TS 6.98085 87.8251 main 651 608 P________PP___ IO011979 6.97255 87.8224 XX 35 -5 6.97255 87.8224 TC 35 6.99745 87.8304 2 8 250
1979126N07090 1979 37 NI BB NOT_NAMED 1979-05-07 06:00:00 TS 6.81763 87.4066 main 608 564 O________OP___ jtwc_io IO011979 6.80000 87.4000 XX 35 -5 6.80000 87.4000 TC 35 6.85288 87.4197 2 9 249
1979126N07090 1979 37 NI BB NOT_NAMED 1979-05-07 09:00:00 TS 6.66562 87.0114 main 564 533 P________PP___ IO011979 6.65752 87.0050 XX 37 -5 6.65752 87.0050 TC 37 6.68181 87.0242 2 8 246
1979126N07090 1979 37 NI BB NOT_NAMED 1979-05-07 12:00:00 TS 6.50000 86.7000 main 533 523 O________OO___ jtwc_io IO011979 6.50000 86.7000 XX 40 -5 6.50000 86.7000 TC 40 6.50000 86.7000 2 6 232
1979126N07090 1979 37 NI BB NOT_NAMED 1979-05-07 15:00:00 TS 6.30117 86.5474 main 514 514 P________PP___ IO011979 6.29996 86.5625 XX 42 -5 6.29996 86.5625 TC 42 6.30359 86.5170 2 5 210
1979126N07090 1979 37 NI BB NOT_NAMED 1979-05-07 18:00:00 TS 6.10161 86.4701 main 518 510 O________OP___ jtwc_io IO011979 6.10000 86.5000 XX 45 -5 6.10000 86.5000 TC 45 6.10482 86.4101 2 4 204
1979126N07090 1979 37 NI BB NOT_NAMED 1979-05-07 21:00:00 TS 5.92788 86.3777 main 512 501 P________PP___ IO011979 5.92750 86.3925 XX 47 -5 5.92750 86.3925 TC 47 5.92865 86.3482 2 3 209
1979126N07090 1979 37 NI BB NOT_NAMED 1979-05-08 00:00:00 TS 5.80000 86.3000 main 504 497 O________OO___ jtwc_io IO011979 5.80000 86.3000 XX 50 -5 5.80000 86.3000 TC 50 5.80000 86.3000 4 3 213
1979126N07090 1979 37 NI BB NOT_NAMED 1979-05-08 03:00:00 TS 5.71635 86.2420 main 497 497 P________PP___ IO011979 5.71999 86.2500 XX 52 -5 5.71999 86.2500 TC 52 5.70905 86.2259 4 2 226
1979126N07090 1979 37 NI BB NOT_NAMED 1979-05-08 06:00:00 TS 5.69083 86.1858 main 497 486 O________OP___ jtwc_io IO011979 5.70000 86.2000 XX 55 -5 5.70000 86.2000 TC 55 5.67248 86.1575 4 1 267
1979126N07090 1979 37 NI BB NOT_NAMED 1979-05-08 09:00:00 TS 5.70823 86.1001 main 486 473 P________PP___ IO011979 5.71250 86.1075 XX 57 -5 5.71250 86.1075 TC 57 5.69967 86.0853 4 2 300
1979126N07090 1979 37 NI BB NOT_NAMED 1979-05-08 12:00:00 TS 5.80000 86.0000 main 473 459 O________OO___ jtwc_io IO011979 5.80000 86.0000 XX 60 -5 5.80000 86.0000 TC 60 5.80000 86.0000 4 3 321
1979126N07090 1979 37 NI BB NOT_NAMED 1979-05-08 15:00:00 TS 5.95689 85.8961 main 456 440 P________PP___ IO011979 5.96250 85.9075 XX 60 -5 5.96250 85.9075 TC 60 5.94568 85.8732 4 4 331
1979126N07090 1979 37 NI BB NOT_NAMED 1979-05-08 18:00:00 TS 6.18836 85.7784 main 440 414 O________OP___ jtwc_io IO011979 6.20000 85.8000 XX 60 -5 6.20000 85.8000 TC 60 6.16508 85.7351 4 6 332
1979126N07090 1979 37 NI BB NOT_NAMED 1979-05-08 21:00:00 TS 6.46399 85.6248 main 412 398 P________PP___ IO011979 6.47002 85.6350 XX 62 -5 6.47002 85.6350 TC 62 6.45194 85.6045 4 7 336
1979126N07090 1979 37 NI BB NOT_NAMED 1979-05-09 00:00:00 TS 6.80000 85.5000 main 398 397 O________OO___ jtwc_io IO011979 6.80000 85.5000 XX 65 -5 6.80000 85.5000 TC 65 6.80000 85.5000 4 7 349
1979126N07090 1979 37 NI BB NOT_NAMED 1979-05-09 03:00:00 TS 7.17208 85.4814 main 398 398 P________PP___ IO011979 7.17000 85.4849 XX 65 -5 7.17000 85.4849 TC 65 7.17625 85.4743 4 8 0
1979126N07090 1979 37 NI BB NOT_NAMED 1979-05-09 06:00:00 TS 7.60333 85.4906 main 403 403 O________OP___ jtwc_io IO011979 7.60000 85.5000 XX 65 -5 7.60000 85.5000 TC 65 7.61000 85.4719 4 9 0
1979126N07090 1979 37 NI BB NOT_NAMED 1979-05-09 09:00:00 TS 8.08124 85.4728 main 411 404 P________PP___ IO011979 8.07749 85.4799 XX 62 -5 8.07749 85.4799 TC 62 8.08874 85.4586 4 10 355
1979126N07090 1979 37 NI BB NOT_NAMED 1979-05-09 12:00:00 TS 8.60000 85.4000 main 412 408 O________OO___ jtwc_io IO011979 8.60000 85.4000 XX 60 -5 8.60000 85.4000 TC 60 8.60000 85.4000 4 11 347
1979126N07090 1979 37 NI BB NOT_NAMED 1979-05-09 15:00:00 TS 9.14763 85.2292 main 410 410 P________PP___ IO011979 9.14252 85.2225 XX 60 -5 9.14252 85.2225 TC 60 9.15786 85.2426 4 12 341
1979126N07090 1979 37 NI BB NOT_NAMED 1979-05-09 18:00:00 TS 9.71253 85.0127 main 419 419 O________OP___ jtwc_io IO011979 9.70000 85.0000 XX 60 -5 9.70000 85.0000 TC 60 9.73760 85.0381 4 12 340
1979126N07090 1979 37 NI BB NOT_NAMED 1979-05-09 21:00:00 TS 10.2862 84.7998 main 429 425 P________PP___ IO011979 10.2800 84.7925 XX 62 -5 10.2800 84.7925 TC 62 10.2985 84.8145 4 12 340
1979126N07090 1979 37 NI BB NOT_NAMED 1979-05-10 00:00:00 TS 10.8000 84.6000 main 440 437 O________OO___ jtwc_io IO011979 10.8000 84.6000 XX 65 -5 10.8000 84.6000 TC 65 10.8000 84.6000 4 10 339
1979126N07090 1979 37 NI BB NOT_NAMED 1979-05-10 03:00:00 TS 11.1936 84.4427 main 447 447 P________PP___ IO011979 11.1875 84.4424 XX 67 -5 11.1875 84.4424 TC 67 11.2058 84.4434 4 8 338
1979126N07090 1979 37 NI BB NOT_NAMED 1979-05-10 06:00:00 TS 11.5158 84.2999 main 455 442 O________OP___ jtwc_io IO011979 11.5000 84.3000 XX 70 -5 11.5000 84.3000 TC 70 11.5473 84.2996 4 7 336
1979126N07090 1979 37 NI BB NOT_NAMED 1979-05-10 09:00:00 TS 11.8284 84.1520 main 442 415 P________PP___ IO011979 11.8225 84.1500 XX 72 -5 11.8225 84.1500 TC 72 11.8402 84.1560 4 7 333
1979126N07090 1979 37 NI BB NOT_NAMED 1979-05-10 12:00:00 TS 12.1000 84.0000 main 415 402 O________OO___ jtwc_io IO011979 12.1000 84.0000 XX 75 -5 12.1000 84.0000 TC 75 12.1000 84.0000 4 6 330
1979126N07090 1979 37 NI BB NOT_NAMED 1979-05-10 15:00:00 TS 12.3201 83.8547 main 402 379 P________PP___ IO011979 12.3075 83.8649 XX 75 -5 12.3075 83.8649 TC 75 12.3455 83.8344 4 5 324
1979126N07090 1979 37 NI BB NOT_NAMED 1979-05-10 18:00:00 TS 12.5216 83.6840 main 379 353 O________OP___ jtwc_io IO011979 12.5000 83.7000 XX 75 -5 12.5000 83.7000 TC 75 12.5648 83.6520 4 6 318
1979126N07090 1979 37 NI BB NOT_NAMED 1979-05-10 21:00:00 TS 12.7489 83.4629 main 353 315 P________PP___ IO011979 12.7350 83.4725 XX 75 -5 12.7350 83.4725 TC 75 12.7767 83.4437 4 7 315
1979126N07090 1979 37 NI BB NOT_NAMED 1979-05-11 00:00:00 TS 13.0000 83.2000 main 315 281 O________OO___ jtwc_io IO011979 13.0000 83.2000 XX 75 -5 13.0000 83.2000 TC 75 13.0000 83.2000 4 8 316
1979126N07090 1979 37 NI BB NOT_NAMED 1979-05-11 03:00:00 TS 13.2963 82.9151 main 281 248 P________PP___ IO011979 13.3000 82.9150 XX 77 -5 13.3000 82.9150 TC 77 13.2891 82.9153 4 8 315
1979126N07090 1979 37 NI BB NOT_NAMED 1979-05-11 06:00:00 TS 13.5958 82.5985 main 248 216 O________OP___ jtwc_io IO011979 13.6000 82.6000 XX 80 -5 13.6000 82.6000 TC 80 13.5875 82.5955 4 9 312
1979126N07090 1979 37 NI BB NOT_NAMED 1979-05-11 09:00:00 TS 13.8757 82.2560 main 216 175 P________PP___ IO011979 13.8800 82.2575 XX 82 -5 13.8800 82.2575 TC 82 13.8672 82.2528 4 8 307
1979126N07090 1979 37 NI BB NOT_NAMED 1979-05-11 12:00:00 TS 14.1000 81.9000 main 175 147 O________OO___ jtwc_io IO011979 14.1000 81.9000 XX 85 -5 14.1000 81.9000 TC 85 14.1000 81.9000 4 8 297
1979126N07090 1979 37 NI BB NOT_NAMED 1979-05-11 15:00:00 TS 14.2250 81.5413 main 137 112 P________PP___ IO011979 14.2224 81.5499 XX 85 -5 14.2224 81.5499 TC 85 14.2302 81.5242 4 7 286
1979126N07090 1979 37 NI BB NOT_NAMED 1979-05-11 18:00:00 TS 14.3051 81.1823 main 112 68 O________OP___ jtwc_io IO011979 14.3000 81.2000 XX 85 -5 14.3000 81.2000 TC 85 14.3153 81.1469 4 7 283
1979126N07090 1979 37 NI BB NOT_NAMED 1979-05-11 21:00:00 TS 14.3876 80.8170 main 68 34 P________PP___ IO011979 14.3850 80.8275 XX 82 -5 14.3850 80.8275 TC 82 14.3927 80.7962 4 7 286
1979126N07090 1979 37 NI BB NOT_NAMED 1979-05-12 00:00:00 TS 14.5000 80.5000 main 34 10 O________OO___ jtwc_io IO011979 14.5000 80.5000 XX 80 -5 14.5000 80.5000 TC 80 14.5000 80.5000 4 6 299
1979126N07090 1979 37 NI BB NOT_NAMED 1979-05-12 03:00:00 TS 14.6853 80.2671 main 15 0 P________PP___ IO011979 14.6774 80.2625 XX 80 -5 14.6774 80.2625 TC 80 14.7010 80.2763 4 6 317
1979126N07090 1979 37 NI BB NOT_NAMED 1979-05-12 06:00:00 TS 14.9116 80.1034 main 10 0 O________OP___ jtwc_io IO011979 14.9000 80.1000 XX 80 -5 14.9000 80.1000 TC 80 14.9347 80.1101 4 6 330
1979126N07090 1979 37 NI BB NOT_NAMED 1979-05-12 09:00:00 TS 15.1637 79.9813 main 0 0 P________PP___ IO011979 15.1575 79.9775 XX 70 -5 15.1575 79.9775 TC 70 15.1761 79.9888 4 5 338
1979126N07090 1979 37 NI BB NOT_NAMED 1979-05-12 12:00:00 TS 15.4000 79.9000 main 0 0 O________OO___ jtwc_io IO011979 15.4000 79.9000 XX 60 -5 15.4000 79.9000 TC 60 15.4000 79.9000 4 4 340
1979126N07090 1979 37 NI BB NOT_NAMED 1979-05-12 15:00:00 TS 15.5590 79.8340 main 0 0 P________PP___ IO011979 15.5650 79.8425 XX 57 -5 15.5650 79.8425 TC 57 15.5471 79.8170 4 3 339
1979126N07090 1979 37 NI BB NOT_NAMED 1979-05-12 18:00:00 TS 15.6925 79.7874 main 0 0 O________OP___ jtwc_io IO011979 15.7000 79.8000 XX 55 -5 15.7000 79.8000 TC 55 15.6774 79.7623 4 3 342
1979126N07090 1979 37 NI BB NOT_NAMED 1979-05-12 21:00:00 TS 15.8297 79.7421 main 0 0 P________PP___ IO011979 15.8350 79.7500 XX 52 -5 15.8350 79.7500 TC 52 15.8190 79.7264 4 3 345
1979126N07090 1979 37 NI BB NOT_NAMED 1979-05-13 00:00:00 TS 16.0000 79.7000 main 0 0 O________OO___ jtwc_io IO011979 16.0000 79.7000 XX 50 -5 16.0000 79.7000 TC 50 16.0000 79.7000 2 4 347
1979126N07090 1979 37 NI BB NOT_NAMED 1979-05-13 03:00:00 TS 16.2270 79.6534 main 0 0 P________PP___ IO011979 16.2200 79.6425 XX -5 16.2200 79.6425 TC 16.2410 79.6751 2 5 351
1979126N07090 1979 37 NI BB NOT_NAMED 1979-05-13 06:00:00 TS 16.5108 79.6167 main 0 0 O________OP___ jtwc_io IO011979 16.5000 79.6000 16.5000 79.6000 TC 16.5325 79.6502 2 6 355
1979126N07090 1979 37 NI BB NOT_NAMED 1979-05-13 09:00:00 TS 16.8426 79.6017 main 0 0 P________PP___ IO011979 16.8350 79.5900 16.8350 79.5900 TC 16.8578 79.6251 2 7 0
1979126N07090 1979 37 NI BB NOT_NAMED 1979-05-13 12:00:00 TS 17.2000 79.6000 main 0 O________OO___ jtwc_io IO011979 17.2000 79.6000 17.2000 79.6000 TC 17.2000 79.6000 1 7 356

IBTrACS Databaseについて

本データベースは、米国NOAAが公開する1842年以降の世界の熱帯低気圧のベストトラックデータアーカイブInternational Best Track Archive for Climate Stewardship (IBTrACS)を、ウェブで閲覧しやすい形式に変換したものです。

最終更新日:2021-12-08